Dr.kaiyo — JD2325 — position and weather

sailwx.info

Track history (hours):
 
Tides and Currents Weather Stations Pressure Air Temp Water Temp Dewpoint Dewpoint Depression Visibility Wind Speed Wind Dir Waves Ship Positions

Dr.kaiyo

Last reported at 2017-Jun-23 06:27 UTC. Time now 2017-Jun-25 00:12 UTC.
Position N 34°41' E 135°12'.

Length 31 m.

Type: Other ship. MMSI: 431301823.

Date/timePositionNaut miles runAvg speedWind from/ knotsBaromVisibWave heightAir tempDewpointWater temp
2017-Jun-23 06:27N 34°41' E 135°12'2 3.9
2017-Jun-23 06:00N 34°40' E 135°12'4 7.7
2017-Jun-23 05:30N 34°37' E 135°09'3 6.0
2017-Jun-23 05:00N 34°36' E 135°05'612.9
2017-Jun-23 04:30N 34°30' E 135°02'3 5.0
2017-Jun-23 03:59N 34°28' E 135°00'5 9.9
2017-Jun-23 03:27N 34°29' E 135°07'4 9.7
2017-Jun-23 03:00N 34°32' E 135°10'510.2
2017-Jun-23 02:29N 34°29' E 135°16'611.6
2017-Jun-23 02:00N 34°33' E 135°21'4 7.2
2017-Jun-23 01:30N 34°36' E 135°21'4 7.8
2017-Jun-23 01:00N 34°40' E 135°21'611.0
2017-Jun-23 00:30N 34°37' E 135°16'4 7.4
2017-Jun-23 00:00N 34°40' E 135°15'2 4.8
2017-Jun-22 23:30N 34°41' E 135°12'0 0.0
2017-Jun-22 23:00N 34°41' E 135°12'0 0.0
2017-Jun-22 06:30N 34°41' E 135°12'2 4.7
2017-Jun-22 06:00N 34°39' E 135°11'713.7
2017-Jun-22 05:30N 34°32' E 135°11'5 9.5
2017-Jun-22 05:00N 34°28' E 135°10'5 9.3
2017-Jun-22 04:30N 34°25' E 135°06'3 1.5
2017-Jun-22 02:43N 34°23' E 135°09'313.5
2017-Jun-22 02:30N 34°24' E 135°06'3 5.5
2017-Jun-22 01:58N 34°26' E 135°03'2 4.4
2017-Jun-22 01:28N 34°27' E 135°05'714.4
2017-Jun-22 01:00N 34°32' E 135°10'2 3.8
2017-Jun-22 00:30N 34°34' E 135°10'3 5.6
2017-Jun-22 00:00N 34°37' E 135°11'510.3
2017-Jun-21 23:30N 34°42' E 135°13'0 0.0
2017-Jun-21 05:23N 34°41' E 135°12'2 5.2
2017-Jun-21 05:00N 34°41' E 135°14'4 7.3
2017-Jun-21 04:30N 34°38' E 135°18'3 6.7
2017-Jun-21 04:00N 34°41' E 135°20'0 0.0
2017-Jun-21 03:30N 34°41' E 135°20'0 0.0
2017-Jun-21 03:00N 34°41' E 135°20'0 0.0
2017-Jun-21 02:30N 34°41' E 135°20'0 0.0
2017-Jun-21 02:00N 34°41' E 135°20'0 0.0
2017-Jun-21 01:30N 34°41' E 135°20'2 3.5
2017-Jun-21 01:01N 34°40' E 135°22'3 6.9
2017-Jun-21 00:31N 34°41' E 135°17'5 9.2
2017-Jun-21 00:00N 34°39' E 135°12'3 5.6
2017-Jun-20 23:30N 34°42' E 135°12'0 0.0
2017-Jun-20 05:28N 34°41' E 135°12'2 4.1
2017-Jun-20 05:00N 34°40' E 135°12'510.4
2017-Jun-20 04:31N 34°36' E 135°16'5 9.4
2017-Jun-20 04:00N 34°35' E 135°22'0 0.0
2017-Jun-20 03:30N 34°35' E 135°22'0 0.1
2017-Jun-20 02:48N 34°35' E 135°21'311.4
2017-Jun-20 02:30N 34°32' E 135°19'612.9
2017-Jun-20 02:00N 34°26' E 135°17'712.0
2017-Jun-20 01:25N 34°23' E 135°09'511.5
2017-Jun-20 01:00N 34°28' E 135°08'611.5
2017-Jun-20 00:30N 34°33' E 135°08'611.4
2017-Jun-20 00:00N 34°39' E 135°11'3 5.9
2017-Jun-19 23:30N 34°41' E 135°12'  
2017-Jun-16 05:11N 34°41' E 135°12'0 1.7
2017-Jun-16 05:00N 34°42' E 135°13'611.3
2017-Jun-16 04:30N 34°38' E 135°17'5 9.5
2017-Jun-16 04:00N 34°34' E 135°22'0 0.0
2017-Jun-16 03:30N 34°34' E 135°22'0 0.0
2017-Jun-16 03:01N 34°34' E 135°22'3 5.8
2017-Jun-16 02:30N 34°32' E 135°20'713.6
2017-Jun-16 02:00N 34°29' E 135°13'713.3
2017-Jun-16 01:27N 34°28' E 135°04'3 4.9
2017-Jun-16 00:51N 34°30' E 135°06'514.2
2017-Jun-16 00:30N 34°33' E 135°11'510.1
2017-Jun-16 00:00N 34°38' E 135°10'4 7.7
2017-Jun-15 23:31N 34°42' E 135°12'0 0.0
2017-Jun-15 23:00N 34°41' E 135°12'0 0.0
2017-Jun-15 06:45N 34°41' E 135°12'1 2.5
2017-Jun-15 06:30N 34°42' E 135°13'510.5
2017-Jun-15 06:00N 34°36' E 135°15'4 8.0
2017-Jun-15 05:30N 34°33' E 135°12'2 3.4
2017-Jun-15 05:00N 34°34' E 135°10'5 9.6
2017-Jun-15 04:30N 34°38' E 135°11'0 0.0
2017-Jun-15 04:00N 34°38' E 135°11'0 0.0
2017-Jun-15 03:30N 34°38' E 135°11'2 4.4
2017-Jun-15 03:00N 34°36' E 135°11'611.5
2017-Jun-15 02:30N 34°31' E 135°09'713.2
2017-Jun-15 01:59N 34°25' E 135°05'4 7.6
2017-Jun-15 01:30N 34°26' E 135°00'810.9
2017-Jun-15 00:47N 34°30' E 135°08'414.1
2017-Jun-15 00:30N 34°33' E 135°12'510.1
2017-Jun-15 00:00N 34°38' E 135°11'3 6.9
2017-Jun-14 23:30N 34°41' E 135°12'0 0.0
2017-Jun-14 23:01N 34°41' E 135°12'0 0.0
2017-Jun-14 05:10N 34°41' E 135°12'0 0.5
2017-Jun-14 05:00N 34°42' E 135°12'5 9.1
2017-Jun-14 04:30N 34°39' E 135°17'3 6.8
2017-Jun-14 04:00N 34°41' E 135°20'0 0.0
2017-Jun-14 03:30N 34°41' E 135°20'0 0.0
2017-Jun-14 03:00N 34°41' E 135°20'1 2.7
2017-Jun-14 02:30N 34°40' E 135°19'611.7
2017-Jun-14 02:00N 34°36' E 135°15'611.8
2017-Jun-14 01:29N 34°30' E 135°12'612.0
2017-Jun-14 01:00N 34°29' E 135°05'5 9.3
2017-Jun-14 00:30N 34°33' E 135°06'611.6
2017-Jun-14 00:01N 34°38' E 135°10'4 7.8
2017-Jun-13 23:30N 34°42' E 135°12'0 0.1
2017-Jun-13 23:01N 34°41' E 135°12'  
Track history (hours):
 
Tides and Currents Weather Stations Pressure Air Temp Water Temp Dewpoint Dewpoint Depression Visibility Wind Speed Wind Dir Waves Ship Positions

Dr.kaiyo

Last reported at 2017-Jun-23 06:27 UTC. Time now 2017-Jun-25 00:12 UTC.
Position N 34°41' E 135°12'.

Length 31 m.

Type: Other ship. MMSI: 431301823.

Date/timePositionNaut miles runAvg speedWind from/ knotsBaromVisibWave heightAir tempDewpointWater temp
2017-Jun-23 06:27N 34°41' E 135°12'2 3.9
2017-Jun-23 06:00N 34°40' E 135°12'4 7.7
2017-Jun-23 05:30N 34°37' E 135°09'3 6.0
2017-Jun-23 05:00N 34°36' E 135°05'612.9
2017-Jun-23 04:30N 34°30' E 135°02'3 5.0
2017-Jun-23 03:59N 34°28' E 135°00'5 9.9
2017-Jun-23 03:27N 34°29' E 135°07'4 9.7
2017-Jun-23 03:00N 34°32' E 135°10'510.2
2017-Jun-23 02:29N 34°29' E 135°16'611.6
2017-Jun-23 02:00N 34°33' E 135°21'4 7.2
2017-Jun-23 01:30N 34°36' E 135°21'4 7.8
2017-Jun-23 01:00N 34°40' E 135°21'611.0
2017-Jun-23 00:30N 34°37' E 135°16'4 7.4
2017-Jun-23 00:00N 34°40' E 135°15'2 4.8
2017-Jun-22 23:30N 34°41' E 135°12'0 0.0
2017-Jun-22 23:00N 34°41' E 135°12'0 0.0
2017-Jun-22 06:30N 34°41' E 135°12'2 4.7
2017-Jun-22 06:00N 34°39' E 135°11'713.7
2017-Jun-22 05:30N 34°32' E 135°11'5 9.5
2017-Jun-22 05:00N 34°28' E 135°10'5 9.3
2017-Jun-22 04:30N 34°25' E 135°06'3 1.5
2017-Jun-22 02:43N 34°23' E 135°09'313.5
2017-Jun-22 02:30N 34°24' E 135°06'3 5.5
2017-Jun-22 01:58N 34°26' E 135°03'2 4.4
2017-Jun-22 01:28N 34°27' E 135°05'714.4
2017-Jun-22 01:00N 34°32' E 135°10'2 3.8
2017-Jun-22 00:30N 34°34' E 135°10'3 5.6
2017-Jun-22 00:00N 34°37' E 135°11'510.3
2017-Jun-21 23:30N 34°42' E 135°13'0 0.0
2017-Jun-21 05:23N 34°41' E 135°12'2 5.2
2017-Jun-21 05:00N 34°41' E 135°14'4 7.3
2017-Jun-21 04:30N 34°38' E 135°18'3 6.7
2017-Jun-21 04:00N 34°41' E 135°20'0 0.0
2017-Jun-21 03:30N 34°41' E 135°20'0 0.0
2017-Jun-21 03:00N 34°41' E 135°20'0 0.0
2017-Jun-21 02:30N 34°41' E 135°20'0 0.0
2017-Jun-21 02:00N 34°41' E 135°20'0 0.0
2017-Jun-21 01:30N 34°41' E 135°20'2 3.5
2017-Jun-21 01:01N 34°40' E 135°22'3 6.9
2017-Jun-21 00:31N 34°41' E 135°17'5 9.2
2017-Jun-21 00:00N 34°39' E 135°12'3 5.6
2017-Jun-20 23:30N 34°42' E 135°12'0 0.0
2017-Jun-20 05:28N 34°41' E 135°12'2 4.1
2017-Jun-20 05:00N 34°40' E 135°12'510.4
2017-Jun-20 04:31N 34°36' E 135°16'5 9.4
2017-Jun-20 04:00N 34°35' E 135°22'0 0.0
2017-Jun-20 03:30N 34°35' E 135°22'0 0.1
2017-Jun-20 02:48N 34°35' E 135°21'311.4
2017-Jun-20 02:30N 34°32' E 135°19'612.9
2017-Jun-20 02:00N 34°26' E 135°17'712.0
2017-Jun-20 01:25N 34°23' E 135°09'511.5
2017-Jun-20 01:00N 34°28' E 135°08'611.5
2017-Jun-20 00:30N 34°33' E 135°08'611.4
2017-Jun-20 00:00N 34°39' E 135°11'3 5.9
2017-Jun-19 23:30N 34°41' E 135°12'  
2017-Jun-16 05:11N 34°41' E 135°12'0 1.7
2017-Jun-16 05:00N 34°42' E 135°13'611.3
2017-Jun-16 04:30N 34°38' E 135°17'5 9.5
2017-Jun-16 04:00N 34°34' E 135°22'0 0.0
2017-Jun-16 03:30N 34°34' E 135°22'0 0.0
2017-Jun-16 03:01N 34°34' E 135°22'3 5.8
2017-Jun-16 02:30N 34°32' E 135°20'713.6
2017-Jun-16 02:00N 34°29' E 135°13'713.3
2017-Jun-16 01:27N 34°28' E 135°04'3 4.9
2017-Jun-16 00:51N 34°30' E 135°06'514.2
2017-Jun-16 00:30N 34°33' E 135°11'510.1
2017-Jun-16 00:00N 34°38' E 135°10'4 7.7
2017-Jun-15 23:31N 34°42' E 135°12'0 0.0
2017-Jun-15 23:00N 34°41' E 135°12'0 0.0
2017-Jun-15 06:45N 34°41' E 135°12'1 2.5
2017-Jun-15 06:30N 34°42' E 135°13'510.5
2017-Jun-15 06:00N 34°36' E 135°15'4 8.0
2017-Jun-15 05:30N 34°33' E 135°12'2 3.4
2017-Jun-15 05:00N 34°34' E 135°10'5 9.6
2017-Jun-15 04:30N 34°38' E 135°11'0 0.0
2017-Jun-15 04:00N 34°38' E 135°11'0 0.0
2017-Jun-15 03:30N 34°38' E 135°11'2 4.4
2017-Jun-15 03:00N 34°36' E 135°11'611.5
2017-Jun-15 02:30N 34°31' E 135°09'713.2
2017-Jun-15 01:59N 34°25' E 135°05'4 7.6
2017-Jun-15 01:30N 34°26' E 135°00'810.9
2017-Jun-15 00:47N 34°30' E 135°08'414.1
2017-Jun-15 00:30N 34°33' E 135°12'510.1
2017-Jun-15 00:00N 34°38' E 135°11'3 6.9
2017-Jun-14 23:30N 34°41' E 135°12'0 0.0
2017-Jun-14 23:01N 34°41' E 135°12'0 0.0
2017-Jun-14 05:10N 34°41' E 135°12'0 0.5
2017-Jun-14 05:00N 34°42' E 135°12'5 9.1
2017-Jun-14 04:30N 34°39' E 135°17'3 6.8
2017-Jun-14 04:00N 34°41' E 135°20'0 0.0
2017-Jun-14 03:30N 34°41' E 135°20'0 0.0
2017-Jun-14 03:00N 34°41' E 135°20'1 2.7
2017-Jun-14 02:30N 34°40' E 135°19'611.7
2017-Jun-14 02:00N 34°36' E 135°15'611.8
2017-Jun-14 01:29N 34°30' E 135°12'612.0
2017-Jun-14 01:00N 34°29' E 135°05'5 9.3
2017-Jun-14 00:30N 34°33' E 135°06'611.6
2017-Jun-14 00:01N 34°38' E 135°10'4 7.8
2017-Jun-13 23:30N 34°42' E 135°12'0 0.1
2017-Jun-13 23:01N 34°41' E 135°12'  

Dump ship's entire track history